createdAt,value
2018-07-03T00:00:04.077Z,18.20
2018-07-03T00:04:06.312Z,18.80
2018-07-03T00:08:08.492Z,18.40
2018-07-03T00:12:11.511Z,18.70
2018-07-03T00:16:19.379Z,19.10
2018-07-03T00:20:22.048Z,19.00
2018-07-03T00:24:24.252Z,18.70
2018-07-03T00:28:26.407Z,18.20
2018-07-03T00:32:29.039Z,18.20
2018-07-03T00:36:31.172Z,18.30
2018-07-03T00:40:33.695Z,18.20
2018-07-03T00:44:35.812Z,18.20
2018-07-03T00:48:38.044Z,18.30
2018-07-03T00:52:40.197Z,18.30
2018-07-03T00:56:51.885Z,18.20
2018-07-03T01:00:54.028Z,17.30
2018-07-03T01:04:56.174Z,15.40
2018-07-03T01:08:58.420Z,17.00
2018-07-03T01:13:00.631Z,17.10
2018-07-03T01:17:03.213Z,17.40
2018-07-03T01:21:05.676Z,17.60
2018-07-03T01:25:07.816Z,17.50
2018-07-03T01:29:10.008Z,17.30
2018-07-03T01:33:12.202Z,17.20
2018-07-03T01:37:14.638Z,15.20
2018-07-03T01:41:16.820Z,16.10
2018-07-03T01:45:19.022Z,17.00
2018-07-03T01:49:21.159Z,17.20
2018-07-03T01:53:24.475Z,16.90
2018-07-03T01:57:26.606Z,16.00
2018-07-03T02:01:29.088Z,15.60
2018-07-03T02:05:31.327Z,16.00
2018-07-03T02:09:34.324Z,16.60
2018-07-03T02:13:36.615Z,16.60
2018-07-03T02:17:38.728Z,16.60
2018-07-03T02:21:40.892Z,16.70
2018-07-03T02:25:43.023Z,16.70
2018-07-03T02:29:45.218Z,16.30
2018-07-03T02:33:47.361Z,15.80
2018-07-03T02:37:49.613Z,15.70
2018-07-03T02:41:51.848Z,16.50
2018-07-03T02:45:54.705Z,16.70
2018-07-03T02:49:56.879Z,16.60
2018-07-03T02:53:59.079Z,16.20
2018-07-03T02:58:01.238Z,15.90
2018-07-03T03:02:03.958Z,15.70
2018-07-03T03:06:07.351Z,15.90
2018-07-03T03:10:09.527Z,15.80
2018-07-03T03:14:11.646Z,14.60
2018-07-03T03:18:14.671Z,14.20
2018-07-03T03:22:16.865Z,15.00
2018-07-03T03:26:19.071Z,15.60
2018-07-03T03:30:21.237Z,16.10
2018-07-03T03:34:23.413Z,16.00
2018-07-03T03:38:26.037Z,15.90
2018-07-03T03:42:28.235Z,16.00
2018-07-03T03:46:30.509Z,15.10
2018-07-03T03:50:32.818Z,14.70
2018-07-03T03:54:34.987Z,15.40
2018-07-03T03:58:37.158Z,14.90
2018-07-03T04:02:41.248Z,14.70
2018-07-03T04:06:43.473Z,14.80
2018-07-03T04:10:45.684Z,16.00
2018-07-03T04:14:47.926Z,16.60
2018-07-03T04:18:50.117Z,16.60
2018-07-03T04:22:52.381Z,15.90
2018-07-03T04:26:54.906Z,15.90
2018-07-03T04:30:57.107Z,16.20
2018-07-03T04:34:59.335Z,15.30
2018-07-03T04:39:01.510Z,16.60
2018-07-03T04:43:04.731Z,17.00
2018-07-03T04:47:06.879Z,17.00
2018-07-03T04:51:10.181Z,16.40
2018-07-03T04:55:13.110Z,16.60
2018-07-03T04:59:16.156Z,16.80
2018-07-03T05:03:18.292Z,17.50
2018-07-03T05:07:20.514Z,17.60
2018-07-03T05:11:23.766Z,17.60
2018-07-03T05:15:26.046Z,17.90
2018-07-03T05:19:29.780Z,18.50
2018-07-03T05:23:31.931Z,19.10
2018-07-03T05:27:34.067Z,19.50
2018-07-03T05:31:37.825Z,20.30
2018-07-03T05:35:39.968Z,19.20
2018-07-03T05:39:42.161Z,18.00
2018-07-03T05:43:44.287Z,17.50
2018-07-03T05:47:46.655Z,17.00
2018-07-03T05:51:48.808Z,18.50
2018-07-03T05:55:51.023Z,20.10
2018-07-03T05:59:53.223Z,21.80
2018-07-03T06:03:55.381Z,25.20
2018-07-03T06:07:57.597Z,24.70
2018-07-03T06:11:59.737Z,23.80
2018-07-03T06:16:02.994Z,23.20
2018-07-03T06:20:06.795Z,22.60
2018-07-03T06:24:09.049Z,24.20
2018-07-03T06:28:11.222Z,25.00
2018-07-03T06:32:13.382Z,24.90
2018-07-03T06:36:15.557Z,22.80
2018-07-03T06:40:17.759Z,22.60
2018-07-03T06:44:19.963Z,22.60
2018-07-03T06:48:22.149Z,21.90
2018-07-03T06:52:24.947Z,22.70
2018-07-03T06:56:27.450Z,22.20
2018-07-03T07:00:29.701Z,23.30
2018-07-03T07:04:32.432Z,23.50
2018-07-03T07:08:34.968Z,22.10
2018-07-03T07:12:37.108Z,23.70
2018-07-03T07:16:39.289Z,22.50
2018-07-03T07:20:42.033Z,22.70
2018-07-03T07:24:44.279Z,23.20
2018-07-03T07:28:46.483Z,23.30
2018-07-03T07:32:48.779Z,23.40
2018-07-03T07:36:51.011Z,23.40
2018-07-03T07:40:53.283Z,23.70
2018-07-03T07:44:55.445Z,25.40
2018-07-03T07:48:57.617Z,25.50
2018-07-03T07:52:59.745Z,26.20
2018-07-03T07:57:02.829Z,26.20
2018-07-03T08:01:05.436Z,26.50
2018-07-03T08:05:08.972Z,26.50
2018-07-03T08:09:11.704Z,26.40
2018-07-03T08:13:14.309Z,26.30
2018-07-03T08:17:16.509Z,26.80
2018-07-03T08:21:20.508Z,25.60
2018-07-03T08:25:22.908Z,25.20
2018-07-03T08:29:25.059Z,26.60
2018-07-03T08:33:27.198Z,28.20
2018-07-03T08:37:29.364Z,28.20
2018-07-03T08:41:31.533Z,27.40
2018-07-03T08:45:34.880Z,26.80
2018-07-03T08:49:37.913Z,27.90
2018-07-03T08:53:40.205Z,27.40
2018-07-03T08:57:42.386Z,28.70
2018-07-03T09:01:44.555Z,29.30
2018-07-03T09:05:47.643Z,28.00
2018-07-03T09:09:49.973Z,28.50
2018-07-03T09:13:54.006Z,28.50
2018-07-03T09:17:56.280Z,29.80
2018-07-03T09:21:58.818Z,28.30
2018-07-03T09:26:00.960Z,29.60
2018-07-03T09:30:04.176Z,27.20
2018-07-03T09:34:06.383Z,27.40
2018-07-03T09:38:08.568Z,27.60
2018-07-03T09:42:10.973Z,27.30
2018-07-03T09:46:13.611Z,28.60
2018-07-03T09:50:16.566Z,28.50
2018-07-03T09:54:18.968Z,29.90
2018-07-03T09:58:21.155Z,30.60
2018-07-03T10:02:23.379Z,28.90
2018-07-03T10:06:25.548Z,25.80
2018-07-03T10:10:27.807Z,25.70
2018-07-03T10:14:30.071Z,28.70
2018-07-03T10:18:32.240Z,29.60
2018-07-03T10:22:34.399Z,30.10
2018-07-03T10:26:36.568Z,28.40
2018-07-03T10:30:38.720Z,27.00
2018-07-03T10:34:40.892Z,28.10
2018-07-03T10:38:43.225Z,29.40
2018-07-03T10:42:45.513Z,27.50
2018-07-03T10:46:48.386Z,26.00
2018-07-03T10:50:50.622Z,26.20
2018-07-03T10:54:52.775Z,26.80
2018-07-03T10:58:55.639Z,28.40
2018-07-03T11:02:58.295Z,29.90
2018-07-03T11:07:00.494Z,28.90
2018-07-03T11:11:02.763Z,30.20
2018-07-03T11:15:05.031Z,31.30
2018-07-03T11:19:07.200Z,31.80
2018-07-03T11:23:10.631Z,32.00
2018-07-03T11:27:14.294Z,32.70
2018-07-03T11:31:16.663Z,29.50
2018-07-03T11:35:18.846Z,31.70
2018-07-03T11:39:21.021Z,27.90
2018-07-03T11:43:23.994Z,27.20
2018-07-03T11:47:26.307Z,28.30
2018-07-03T11:51:28.440Z,26.90
2018-07-03T11:55:30.584Z,27.00
2018-07-03T11:59:32.881Z,26.90
2018-07-03T12:03:35.056Z,28.00
2018-07-03T12:07:37.248Z,29.00
2018-07-03T12:11:39.423Z,30.90
2018-07-03T12:15:41.639Z,33.20
2018-07-03T12:19:43.964Z,33.40
2018-07-03T12:23:46.658Z,32.00
2018-07-03T12:27:49.979Z,34.70
2018-07-03T12:31:52.196Z,36.60
2018-07-03T12:35:54.595Z,35.40
2018-07-03T12:39:56.835Z,38.40
2018-07-03T12:43:59.792Z,39.20
2018-07-03T12:48:02.013Z,36.00
2018-07-03T12:52:05.484Z,36.60
2018-07-03T12:56:08.284Z,34.30
2018-07-03T13:00:10.431Z,35.10
2018-07-03T13:04:12.549Z,33.90
2018-07-03T13:08:14.848Z,34.40
2018-07-03T13:12:17.095Z,34.50
2018-07-03T13:16:19.264Z,36.40
2018-07-03T13:20:21.451Z,38.00
2018-07-03T13:24:23.623Z,38.30
2018-07-03T13:28:26.143Z,39.10
2018-07-03T13:32:28.316Z,38.80
2018-07-03T13:36:30.909Z,39.20
2018-07-03T13:40:33.181Z,37.90
2018-07-03T13:44:35.326Z,40.40
2018-07-03T13:48:37.552Z,37.90
2018-07-03T13:52:39.725Z,36.20
2018-07-03T13:56:43.079Z,37.30
2018-07-03T14:00:45.284Z,39.40
2018-07-03T14:04:47.447Z,39.50
2018-07-03T14:08:49.653Z,39.30
2018-07-03T14:12:51.966Z,40.10
2018-07-03T14:16:55.041Z,39.00
2018-07-03T14:20:59.008Z,40.20
2018-07-03T14:25:01.660Z,39.70
2018-07-03T14:29:04.106Z,40.70
2018-07-03T14:33:07.795Z,38.30
2018-07-03T14:37:11.090Z,36.40
2018-07-03T14:41:13.542Z,37.20
2018-07-03T14:45:15.901Z,35.70
2018-07-03T14:49:18.060Z,36.90
2018-07-03T14:53:20.259Z,36.70
2018-07-03T14:57:22.488Z,35.10
2018-07-03T15:01:24.708Z,33.50
2018-07-03T15:05:26.889Z,33.20
2018-07-03T15:09:29.052Z,34.60
2018-07-03T15:13:31.284Z,32.40
2018-07-03T15:17:33.469Z,31.40
2018-07-03T15:21:35.726Z,32.70
2018-07-03T15:25:37.846Z,30.50
2018-07-03T15:29:40.571Z,30.10
2018-07-03T15:33:42.840Z,30.30
2018-07-03T15:37:45.932Z,31.40
2018-07-03T15:41:48.103Z,32.20
2018-07-03T15:45:50.413Z,32.90
2018-07-03T15:49:52.685Z,32.80
2018-07-03T15:53:55.853Z,30.40
2018-07-03T15:57:58.223Z,28.90
2018-07-03T16:02:00.429Z,30.50
2018-07-03T16:06:12.745Z,30.10
2018-07-03T16:10:15.062Z,29.60
2018-07-03T16:14:17.283Z,29.10
2018-07-03T16:18:19.533Z,30.50
2018-07-03T16:40:48.896Z,28.80
2018-07-03T16:44:51.136Z,29.00
2018-07-03T16:48:54.405Z,28.40
2018-07-03T16:52:56.748Z,28.20
2018-07-03T16:56:59.016Z,28.20
2018-07-03T17:01:01.188Z,27.80
2018-07-03T17:05:03.390Z,28.00
2018-07-03T17:09:08.380Z,28.00
2018-07-03T17:13:10.515Z,28.30
2018-07-03T17:17:12.733Z,28.40
2018-07-03T17:21:14.989Z,28.40
2018-07-03T17:25:17.242Z,28.40
2018-07-03T17:29:19.465Z,28.70
2018-07-03T17:33:21.693Z,28.20
2018-07-03T17:37:25.061Z,27.70
2018-07-03T17:41:38.788Z,29.50
2018-07-03T17:45:51.212Z,29.80
2018-07-03T17:49:53.420Z,30.30
2018-07-03T17:53:55.634Z,31.00
2018-07-03T17:57:59.269Z,30.90
2018-07-03T18:02:01.501Z,31.00
2018-07-03T18:06:03.760Z,30.60
2018-07-03T18:10:05.993Z,31.00
2018-07-03T18:14:08.185Z,30.70
2018-07-03T18:18:10.420Z,31.10
2018-07-03T18:22:12.651Z,30.60
2018-07-03T18:26:14.863Z,30.70
2018-07-03T18:30:17.128Z,31.10
2018-07-03T18:34:19.341Z,30.80
2018-07-03T18:38:21.531Z,31.20
2018-07-03T18:42:23.681Z,31.00
2018-07-03T18:46:25.823Z,30.90
2018-07-03T18:50:28.019Z,30.90
2018-07-03T18:54:30.297Z,30.90
2018-07-03T18:58:32.409Z,30.80
2018-07-03T19:02:34.578Z,30.70
2018-07-03T19:06:36.726Z,30.60
2018-07-03T19:10:39.488Z,30.00
2018-07-03T19:14:41.660Z,29.90
2018-07-03T19:18:43.851Z,29.90
2018-07-03T19:22:46.154Z,29.80
2018-07-03T19:26:48.347Z,29.60
2018-07-03T19:30:50.584Z,29.60
2018-07-03T19:34:52.816Z,29.30
2018-07-03T19:38:55.021Z,29.30
2018-07-03T19:43:35.534Z,28.90
2018-07-03T19:47:37.747Z,28.30
2018-07-03T19:51:39.912Z,28.20
2018-07-03T19:55:42.102Z,27.90
2018-07-03T19:59:44.294Z,27.90
2018-07-03T20:03:46.479Z,27.50
2018-07-03T20:07:48.656Z,27.70
2018-07-03T20:11:50.814Z,27.40
2018-07-03T20:15:52.972Z,27.20
2018-07-03T20:19:55.188Z,26.40
2018-07-03T20:23:57.428Z,25.90
2018-07-03T20:28:00.295Z,25.60
2018-07-03T20:32:02.556Z,25.40
2018-07-03T20:36:04.839Z,25.40
2018-07-03T20:40:07.087Z,25.40
2018-07-03T20:44:09.290Z,25.50
2018-07-03T20:48:11.531Z,24.90
2018-07-03T20:52:14.912Z,25.30
2018-07-03T20:56:17.128Z,25.30
2018-07-03T21:00:19.349Z,25.00
2018-07-03T21:04:21.545Z,25.10
2018-07-03T21:08:25.219Z,24.80
2018-07-03T21:12:27.393Z,24.50
2018-07-03T21:16:29.579Z,24.30
2018-07-03T21:20:31.887Z,24.20
2018-07-03T21:24:34.079Z,24.30
2018-07-03T21:28:36.282Z,24.30
2018-07-03T21:32:38.471Z,24.20
2018-07-03T21:36:40.726Z,24.10
2018-07-03T21:40:42.951Z,23.90
2018-07-03T21:44:45.117Z,23.60
2018-07-03T21:48:48.169Z,23.10
2018-07-03T21:52:54.234Z,23.00
2018-07-03T21:56:56.464Z,23.10
2018-07-03T22:00:58.612Z,23.10
2018-07-03T22:05:00.792Z,22.90
2018-07-03T22:09:04.036Z,22.90
2018-07-03T22:13:06.218Z,22.80
2018-07-03T22:17:09.182Z,22.70
2018-07-03T22:21:11.361Z,22.70
2018-07-03T22:25:13.538Z,22.50
2018-07-03T22:29:15.721Z,22.60
2018-07-03T22:33:18.875Z,22.60
2018-07-03T22:37:21.092Z,22.00
2018-07-03T22:41:23.260Z,21.70
2018-07-03T22:45:25.480Z,22.40
2018-07-03T22:49:27.785Z,22.20
2018-07-03T22:53:29.984Z,22.00
2018-07-03T22:57:32.156Z,21.70
2018-07-03T23:01:34.308Z,21.80
2018-07-03T23:05:36.471Z,22.10
2018-07-03T23:09:38.639Z,22.10
2018-07-03T23:13:40.784Z,22.10
2018-07-03T23:17:42.932Z,22.10
2018-07-03T23:21:45.072Z,21.90
2018-07-03T23:25:47.246Z,21.90
2018-07-03T23:29:49.498Z,22.10
2018-07-03T23:33:51.684Z,22.20
2018-07-03T23:37:54.104Z,22.00
2018-07-03T23:41:56.260Z,21.80
2018-07-03T23:45:59.471Z,21.90
2018-07-03T23:50:13.228Z,22.00
2018-07-03T23:54:27.043Z,21.80
2018-07-03T23:58:40.659Z,21.70
